sensor_id;sensor_type;location;lat;lon;timestamp;temperature;humidity
2130;DHT22;1071;52.544;13.374;2024-02-15T00:00:03;12.10;99.90
2130;DHT22;1071;52.544;13.374;2024-02-15T00:02:33;12.10;99.90
2130;DHT22;1071;52.544;13.374;2024-02-15T00:05:00;12.10;99.90
2130;DHT22;1071;52.544;13.374;2024-02-15T00:07:31;12.00;99.90
2130;DHT22;1071;52.544;13.374;2024-02-15T00:10:02;12.10;99.90
2130;DHT22;1071;52.544;13.374;2024-02-15T00:12:32;12.10;99.90
2130;DHT22;1071;52.544;13.374;2024-02-15T00:14:59;12.00;99.90
2130;DHT22;1071;52.544;13.374;2024-02-15T00:17:27;12.10;99.90
2130;DHT22;1071;52.544;13.374;2024-02-15T00:19:54;12.10;99.90
2130;DHT22;1071;52.544;13.374;2024-02-15T00:22:21;12.00;99.90
2130;DHT22;1071;52.544;13.374;2024-02-15T00:24:51;12.00;99.90
2130;DHT22;1071;52.544;13.374;2024-02-15T00:27:19;12.10;99.90
2130;DHT22;1071;52.544;13.374;2024-02-15T00:29:53;12.10;99.90
2130;DHT22;1071;52.544;13.374;2024-02-15T00:32:20;12.10;99.90
2130;DHT22;1071;52.544;13.374;2024-02-15T00:34:47;12.10;99.90
2130;DHT22;1071;52.544;13.374;2024-02-15T00:37:14;12.10;99.90
2130;DHT22;1071;52.544;13.374;2024-02-15T00:39:41;12.10;99.90
2130;DHT22;1071;52.544;13.374;2024-02-15T00:42:09;12.10;99.90
2130;DHT22;1071;52.544;13.374;2024-02-15T00:44:35;12.10;99.90
2130;DHT22;1071;52.544;13.374;2024-02-15T00:47:13;12.20;99.90
2130;DHT22;1071;52.544;13.374;2024-02-15T00:49:41;12.20;99.90
2130;DHT22;1071;52.544;13.374;2024-02-15T00:52:08;12.20;99.90
2130;DHT22;1071;52.544;13.374;2024-02-15T00:54:35;12.20;99.90
2130;DHT22;1071;52.544;13.374;2024-02-15T00:57:02;12.20;99.90
2130;DHT22;1071;52.544;13.374;2024-02-15T00:59:29;12.10;99.90
2130;DHT22;1071;52.544;13.374;2024-02-15T01:01:57;12.10;99.90
2130;DHT22;1071;52.544;13.374;2024-02-15T01:04:26;12.10;99.90
2130;DHT22;1071;52.544;13.374;2024-02-15T01:06:54;12.10;99.90
2130;DHT22;1071;52.544;13.374;2024-02-15T01:09:21;12.10;99.90
2130;DHT22;1071;52.544;13.374;2024-02-15T01:11:48;12.10;99.90
2130;DHT22;1071;52.544;13.374;2024-02-15T01:14:15;12.10;99.90
2130;DHT22;1071;52.544;13.374;2024-02-15T01:16:43;12.10;99.90
2130;DHT22;1071;52.544;13.374;2024-02-15T01:19:10;12.10;99.90
2130;DHT22;1071;52.544;13.374;2024-02-15T01:21:38;12.10;99.90
2130;DHT22;1071;52.544;13.374;2024-02-15T01:24:05;12.10;99.90
2130;DHT22;1071;52.544;13.374;2024-02-15T01:26:33;12.00;99.90
2130;DHT22;1071;52.544;13.374;2024-02-15T01:29:00;12.00;99.90
2130;DHT22;1071;52.544;13.374;2024-02-15T01:31:28;12.00;99.90
2130;DHT22;1071;52.544;13.374;2024-02-15T01:33:55;12.00;99.90
2130;DHT22;1071;52.544;13.374;2024-02-15T01:36:22;12.00;99.90
2130;DHT22;1071;52.544;13.374;2024-02-15T01:38:51;12.00;99.90
2130;DHT22;1071;52.544;13.374;2024-02-15T01:41:18;12.00;99.90
2130;DHT22;1071;52.544;13.374;2024-02-15T01:43:45;12.00;99.90
2130;DHT22;1071;52.544;13.374;2024-02-15T01:46:14;12.00;99.90
2130;DHT22;1071;52.544;13.374;2024-02-15T01:48:42;11.90;99.90
2130;DHT22;1071;52.544;13.374;2024-02-15T01:51:10;11.90;99.90
2130;DHT22;1071;52.544;13.374;2024-02-15T01:53:38;12.00;99.90
2130;DHT22;1071;52.544;13.374;2024-02-15T01:56:08;12.00;99.90
2130;DHT22;1071;52.544;13.374;2024-02-15T01:58:36;12.00;99.90
2130;DHT22;1071;52.544;13.374;2024-02-15T02:01:06;12.10;99.90
2130;DHT22;1071;52.544;13.374;2024-02-15T02:03:34;12.10;99.90
2130;DHT22;1071;52.544;13.374;2024-02-15T02:06:02;12.10;99.90
2130;DHT22;1071;52.544;13.374;2024-02-15T02:08:30;12.10;99.90
2130;DHT22;1071;52.544;13.374;2024-02-15T02:10:57;12.20;99.90
2130;DHT22;1071;52.544;13.374;2024-02-15T02:13:26;12.20;99.90
2130;DHT22;1071;52.544;13.374;2024-02-15T02:15:53;12.20;99.90
2130;DHT22;1071;52.544;13.374;2024-02-15T02:18:21;12.30;99.90
2130;DHT22;1071;52.544;13.374;2024-02-15T02:20:49;12.30;99.90
2130;DHT22;1071;52.544;13.374;2024-02-15T02:23:17;12.40;99.90
2130;DHT22;1071;52.544;13.374;2024-02-15T02:25:49;12.40;99.90
2130;DHT22;1071;52.544;13.374;2024-02-15T02:28:17;12.40;99.90
2130;DHT22;1071;52.544;13.374;2024-02-15T02:30:44;12.50;99.90
2130;DHT22;1071;52.544;13.374;2024-02-15T02:33:11;12.50;99.90
2130;DHT22;1071;52.544;13.374;2024-02-15T02:35:43;12.50;99.90
2130;DHT22;1071;52.544;13.374;2024-02-15T02:38:11;12.50;99.90
2130;DHT22;1071;52.544;13.374;2024-02-15T02:40:38;12.50;99.90
2130;DHT22;1071;52.544;13.374;2024-02-15T02:43:06;12.50;99.90
2130;DHT22;1071;52.544;13.374;2024-02-15T02:45:33;12.50;99.90
2130;DHT22;1071;52.544;13.374;2024-02-15T02:48:00;12.50;99.90
2130;DHT22;1071;52.544;13.374;2024-02-15T02:50:27;12.50;99.90
2130;DHT22;1071;52.544;13.374;2024-02-15T02:52:54;12.50;99.90
2130;DHT22;1071;52.544;13.374;2024-02-15T02:55:22;12.40;99.90
2130;DHT22;1071;52.544;13.374;2024-02-15T02:57:52;12.40;99.90
2130;DHT22;1071;52.544;13.374;2024-02-15T03:00:22;12.50;99.90
2130;DHT22;1071;52.544;13.374;2024-02-15T03:02:49;12.50;99.90
2130;DHT22;1071;52.544;13.374;2024-02-15T03:05:16;12.50;99.90
2130;DHT22;1071;52.544;13.374;2024-02-15T03:07:46;12.40;99.90
2130;DHT22;1071;52.544;13.374;2024-02-15T03:10:14;12.50;99.90
2130;DHT22;1071;52.544;13.374;2024-02-15T03:12:41;12.50;99.90
2130;DHT22;1071;52.544;13.374;2024-02-15T03:15:11;12.50;99.90
2130;DHT22;1071;52.544;13.374;2024-02-15T03:17:40;12.50;99.90
2130;DHT22;1071;52.544;13.374;2024-02-15T03:20:08;12.50;99.90
2130;DHT22;1071;52.544;13.374;2024-02-15T03:22:50;12.50;99.90
2130;DHT22;1071;52.544;13.374;2024-02-15T03:25:18;12.50;99.90
2130;DHT22;1071;52.544;13.374;2024-02-15T03:27:45;12.50;99.90
2130;DHT22;1071;52.544;13.374;2024-02-15T03:30:12;12.50;99.90
2130;DHT22;1071;52.544;13.374;2024-02-15T03:32:40;12.50;99.90
2130;DHT22;1071;52.544;13.374;2024-02-15T03:35:08;12.50;99.90
2130;DHT22;1071;52.544;13.374;2024-02-15T03:37:39;12.50;99.90
2130;DHT22;1071;52.544;13.374;2024-02-15T03:40:07;12.50;99.90
2130;DHT22;1071;52.544;13.374;2024-02-15T03:42:34;12.50;99.90
2130;DHT22;1071;52.544;13.374;2024-02-15T03:45:03;12.40;99.90
2130;DHT22;1071;52.544;13.374;2024-02-15T03:47:31;12.40;99.90
2130;DHT22;1071;52.544;13.374;2024-02-15T03:50:00;12.50;99.90
2130;DHT22;1071;52.544;13.374;2024-02-15T03:52:27;12.40;99.90
2130;DHT22;1071;52.544;13.374;2024-02-15T03:54:55;12.40;99.90
2130;DHT22;1071;52.544;13.374;2024-02-15T03:57:22;12.50;99.90
2130;DHT22;1071;52.544;13.374;2024-02-15T03:59:49;12.50;99.90
2130;DHT22;1071;52.544;13.374;2024-02-15T04:02:18;12.50;99.90
2130;DHT22;1071;52.544;13.374;2024-02-15T04:04:45;12.50;99.90
2130;DHT22;1071;52.544;13.374;2024-02-15T04:07:16;12.50;99.90
2130;DHT22;1071;52.544;13.374;2024-02-15T04:09:43;12.50;99.90
2130;DHT22;1071;52.544;13.374;2024-02-15T04:12:10;12.60;99.90
2130;DHT22;1071;52.544;13.374;2024-02-15T04:14:38;12.60;99.90
2130;DHT22;1071;52.544;13.374;2024-02-15T04:17:05;12.60;99.90
2130;DHT22;1071;52.544;13.374;2024-02-15T04:19:32;12.60;99.90
2130;DHT22;1071;52.544;13.374;2024-02-15T04:21:59;12.60;99.90
2130;DHT22;1071;52.544;13.374;2024-02-15T04:24:31;12.60;99.90
2130;DHT22;1071;52.544;13.374;2024-02-15T04:26:58;12.60;99.90
2130;DHT22;1071;52.544;13.374;2024-02-15T04:29:25;12.60;99.90
2130;DHT22;1071;52.544;13.374;2024-02-15T04:31:52;12.60;99.90
2130;DHT22;1071;52.544;13.374;2024-02-15T04:34:20;12.60;99.90
2130;DHT22;1071;52.544;13.374;2024-02-15T04:36:48;12.60;99.90
2130;DHT22;1071;52.544;13.374;2024-02-15T04:39:16;12.60;99.90
2130;DHT22;1071;52.544;13.374;2024-02-15T04:41:54;12.60;99.90
2130;DHT22;1071;52.544;13.374;2024-02-15T04:44:21;12.70;99.90
2130;DHT22;1071;52.544;13.374;2024-02-15T04:46:52;12.60;99.90
2130;DHT22;1071;52.544;13.374;2024-02-15T04:49:22;12.70;99.90
2130;DHT22;1071;52.544;13.374;2024-02-15T04:51:49;12.70;99.90
2130;DHT22;1071;52.544;13.374;2024-02-15T04:54:17;12.70;99.90
2130;DHT22;1071;52.544;13.374;2024-02-15T04:56:44;12.70;99.90
2130;DHT22;1071;52.544;13.374;2024-02-15T04:59:12;12.70;99.90
2130;DHT22;1071;52.544;13.374;2024-02-15T05:01:40;12.70;99.90
2130;DHT22;1071;52.544;13.374;2024-02-15T05:04:08;12.70;99.90
2130;DHT22;1071;52.544;13.374;2024-02-15T05:06:39;12.70;99.90
2130;DHT22;1071;52.544;13.374;2024-02-15T05:09:07;12.70;99.90
2130;DHT22;1071;52.544;13.374;2024-02-15T05:11:36;12.70;99.90
2130;DHT22;1071;52.544;13.374;2024-02-15T05:14:04;12.70;99.90
2130;DHT22;1071;52.544;13.374;2024-02-15T05:16:34;12.70;99.90
2130;DHT22;1071;52.544;13.374;2024-02-15T05:19:08;12.70;99.90
2130;DHT22;1071;52.544;13.374;2024-02-15T05:21:37;12.70;99.90
2130;DHT22;1071;52.544;13.374;2024-02-15T05:24:05;12.70;99.90
2130;DHT22;1071;52.544;13.374;2024-02-15T05:26:32;12.70;99.90
2130;DHT22;1071;52.544;13.374;2024-02-15T05:28:59;12.70;99.90
2130;DHT22;1071;52.544;13.374;2024-02-15T05:31:26;12.70;99.90
2130;DHT22;1071;52.544;13.374;2024-02-15T05:33:54;12.70;99.90
2130;DHT22;1071;52.544;13.374;2024-02-15T05:36:23;12.70;99.90
2130;DHT22;1071;52.544;13.374;2024-02-15T05:38:52;12.70;99.90
2130;DHT22;1071;52.544;13.374;2024-02-15T05:41:20;12.80;99.90
2130;DHT22;1071;52.544;13.374;2024-02-15T05:43:47;12.80;99.90
2130;DHT22;1071;52.544;13.374;2024-02-15T05:46:15;12.80;99.90
2130;DHT22;1071;52.544;13.374;2024-02-15T05:48:42;12.70;99.90
2130;DHT22;1071;52.544;13.374;2024-02-15T05:51:10;12.70;99.90
2130;DHT22;1071;52.544;13.374;2024-02-15T05:53:37;12.70;99.90
2130;DHT22;1071;52.544;13.374;2024-02-15T05:56:07;12.70;99.90
2130;DHT22;1071;52.544;13.374;2024-02-15T05:58:35;12.60;99.90
2130;DHT22;1071;52.544;13.374;2024-02-15T06:01:03;12.60;99.90
2130;DHT22;1071;52.544;13.374;2024-02-15T06:03:32;12.70;99.90
2130;DHT22;1071;52.544;13.374;2024-02-15T06:06:00;12.70;99.90
2130;DHT22;1071;52.544;13.374;2024-02-15T06:08:33;12.70;99.90
2130;DHT22;1071;52.544;13.374;2024-02-15T06:11:00;12.70;99.90
2130;DHT22;1071;52.544;13.374;2024-02-15T06:13:28;12.70;99.90
2130;DHT22;1071;52.544;13.374;2024-02-15T06:15:55;12.80;99.90
2130;DHT22;1071;52.544;13.374;2024-02-15T06:18:25;12.80;99.90
2130;DHT22;1071;52.544;13.374;2024-02-15T06:20:54;12.80;99.90
2130;DHT22;1071;52.544;13.374;2024-02-15T06:23:23;12.80;99.90
2130;DHT22;1071;52.544;13.374;2024-02-15T06:25:53;12.80;99.90
2130;DHT22;1071;52.544;13.374;2024-02-15T06:28:21;12.80;99.90
2130;DHT22;1071;52.544;13.374;2024-02-15T06:31:03;12.80;99.90
2130;DHT22;1071;52.544;13.374;2024-02-15T06:33:47;12.80;99.90
2130;DHT22;1071;52.544;13.374;2024-02-15T06:36:31;12.80;99.90
2130;DHT22;1071;52.544;13.374;2024-02-15T06:39:15;12.90;99.90
2130;DHT22;1071;52.544;13.374;2024-02-15T06:42:01;12.80;99.90
2130;DHT22;1071;52.544;13.374;2024-02-15T06:44:28;12.90;99.90
2130;DHT22;1071;52.544;13.374;2024-02-15T06:46:55;12.90;99.90
2130;DHT22;1071;52.544;13.374;2024-02-15T06:49:23;12.90;99.90
2130;DHT22;1071;52.544;13.374;2024-02-15T06:51:51;12.90;99.90
2130;DHT22;1071;52.544;13.374;2024-02-15T06:54:20;12.90;99.90
2130;DHT22;1071;52.544;13.374;2024-02-15T06:56:48;13.00;99.90
2130;DHT22;1071;52.544;13.374;2024-02-15T06:59:18;13.00;99.90
2130;DHT22;1071;52.544;13.374;2024-02-15T07:01:47;13.00;99.90
2130;DHT22;1071;52.544;13.374;2024-02-15T07:04:15;13.00;99.90
2130;DHT22;1071;52.544;13.374;2024-02-15T07:06:42;13.00;99.90
2130;DHT22;1071;52.544;13.374;2024-02-15T07:09:14;13.00;99.90
2130;DHT22;1071;52.544;13.374;2024-02-15T07:11:43;13.00;99.90
2130;DHT22;1071;52.544;13.374;2024-02-15T07:14:11;13.00;99.90
2130;DHT22;1071;52.544;13.374;2024-02-15T07:16:40;13.00;99.90
2130;DHT22;1071;52.544;13.374;2024-02-15T07:19:10;13.00;99.90
2130;DHT22;1071;52.544;13.374;2024-02-15T07:21:37;13.10;99.90
2130;DHT22;1071;52.544;13.374;2024-02-15T07:24:05;13.10;99.90
2130;DHT22;1071;52.544;13.374;2024-02-15T07:26:32;13.10;99.90
2130;DHT22;1071;52.544;13.374;2024-02-15T07:29:01;13.10;99.90
2130;DHT22;1071;52.544;13.374;2024-02-15T07:31:31;13.20;99.90
2130;DHT22;1071;52.544;13.374;2024-02-15T07:34:00;13.20;99.90
2130;DHT22;1071;52.544;13.374;2024-02-15T07:36:29;13.20;99.90
2130;DHT22;1071;52.544;13.374;2024-02-15T07:38:56;13.20;99.90
2130;DHT22;1071;52.544;13.374;2024-02-15T07:41:26;13.30;99.90
2130;DHT22;1071;52.544;13.374;2024-02-15T07:43:54;13.30;99.90
2130;DHT22;1071;52.544;13.374;2024-02-15T07:46:23;13.30;99.90
2130;DHT22;1071;52.544;13.374;2024-02-15T07:48:54;13.30;99.90
2130;DHT22;1071;52.544;13.374;2024-02-15T07:51:24;13.30;99.90
2130;DHT22;1071;52.544;13.374;2024-02-15T07:53:52;13.30;99.90
2130;DHT22;1071;52.544;13.374;2024-02-15T07:56:21;13.30;99.90
2130;DHT22;1071;52.544;13.374;2024-02-15T07:58:49;13.40;99.90
2130;DHT22;1071;52.544;13.374;2024-02-15T08:01:17;13.40;99.90
2130;DHT22;1071;52.544;13.374;2024-02-15T08:03:46;13.40;99.90
2130;DHT22;1071;52.544;13.374;2024-02-15T08:06:14;13.40;99.90
2130;DHT22;1071;52.544;13.374;2024-02-15T08:08:44;13.40;99.90
2130;DHT22;1071;52.544;13.374;2024-02-15T08:11:12;13.40;99.90
2130;DHT22;1071;52.544;13.374;2024-02-15T08:13:43;13.50;99.90
2130;DHT22;1071;52.544;13.374;2024-02-15T08:16:11;13.50;99.90
2130;DHT22;1071;52.544;13.374;2024-02-15T08:18:41;13.50;99.90
2130;DHT22;1071;52.544;13.374;2024-02-15T08:21:12;13.50;99.90
2130;DHT22;1071;52.544;13.374;2024-02-15T08:23:39;13.50;99.90
2130;DHT22;1071;52.544;13.374;2024-02-15T08:26:08;13.50;99.90
2130;DHT22;1071;52.544;13.374;2024-02-15T08:28:36;13.50;99.90
2130;DHT22;1071;52.544;13.374;2024-02-15T08:31:03;13.50;99.90
2130;DHT22;1071;52.544;13.374;2024-02-15T08:33:31;13.50;99.90
2130;DHT22;1071;52.544;13.374;2024-02-15T08:35:58;13.50;99.90
2130;DHT22;1071;52.544;13.374;2024-02-15T08:38:29;13.50;99.90
2130;DHT22;1071;52.544;13.374;2024-02-15T08:40:56;13.60;99.90
2130;DHT22;1071;52.544;13.374;2024-02-15T08:43:25;13.60;99.90
2130;DHT22;1071;52.544;13.374;2024-02-15T08:45:52;13.60;99.90
2130;DHT22;1071;52.544;13.374;2024-02-15T08:48:21;13.70;99.90
2130;DHT22;1071;52.544;13.374;2024-02-15T08:50:55;13.70;99.90
2130;DHT22;1071;52.544;13.374;2024-02-15T08:53:22;13.70;99.90
2130;DHT22;1071;52.544;13.374;2024-02-15T08:55:50;13.70;99.90
2130;DHT22;1071;52.544;13.374;2024-02-15T08:58:18;13.70;99.90
2130;DHT22;1071;52.544;13.374;2024-02-15T09:00:48;13.80;99.90
2130;DHT22;1071;52.544;13.374;2024-02-15T09:03:17;13.80;99.90
2130;DHT22;1071;52.544;13.374;2024-02-15T09:05:45;13.80;99.90
2130;DHT22;1071;52.544;13.374;2024-02-15T09:08:12;13.80;99.90
2130;DHT22;1071;52.544;13.374;2024-02-15T09:10:39;13.80;99.90
2130;DHT22;1071;52.544;13.374;2024-02-15T09:13:06;13.90;99.90
2130;DHT22;1071;52.544;13.374;2024-02-15T09:15:34;13.80;99.90
2130;DHT22;1071;52.544;13.374;2024-02-15T09:18:03;13.80;99.90
2130;DHT22;1071;52.544;13.374;2024-02-15T09:20:30;13.90;99.90
2130;DHT22;1071;52.544;13.374;2024-02-15T09:22:58;13.90;99.90
2130;DHT22;1071;52.544;13.374;2024-02-15T09:25:30;14.00;99.90
2130;DHT22;1071;52.544;13.374;2024-02-15T09:27:58;13.90;99.90
2130;DHT22;1071;52.544;13.374;2024-02-15T09:30:25;14.00;99.90
2130;DHT22;1071;52.544;13.374;2024-02-15T09:32:53;13.90;99.90
2130;DHT22;1071;52.544;13.374;2024-02-15T09:35:22;14.00;99.90
2130;DHT22;1071;52.544;13.374;2024-02-15T09:37:49;14.00;99.90
2130;DHT22;1071;52.544;13.374;2024-02-15T09:40:18;14.00;99.90
2130;DHT22;1071;52.544;13.374;2024-02-15T09:42:47;14.00;99.90
2130;DHT22;1071;52.544;13.374;2024-02-15T09:45:14;14.00;99.90
2130;DHT22;1071;52.544;13.374;2024-02-15T09:47:44;14.00;99.90
2130;DHT22;1071;52.544;13.374;2024-02-15T09:50:12;14.00;99.90
2130;DHT22;1071;52.544;13.374;2024-02-15T09:52:44;14.00;99.90
2130;DHT22;1071;52.544;13.374;2024-02-15T09:55:12;14.00;99.90
2130;DHT22;1071;52.544;13.374;2024-02-15T09:57:39;14.00;99.90
2130;DHT22;1071;52.544;13.374;2024-02-15T10:00:09;14.00;99.90
2130;DHT22;1071;52.544;13.374;2024-02-15T10:02:40;14.00;99.90
2130;DHT22;1071;52.544;13.374;2024-02-15T10:05:08;14.00;99.90
2130;DHT22;1071;52.544;13.374;2024-02-15T10:07:37;14.00;99.90
2130;DHT22;1071;52.544;13.374;2024-02-15T10:10:19;14.00;99.90
2130;DHT22;1071;52.544;13.374;2024-02-15T10:12:55;14.00;99.90
2130;DHT22;1071;52.544;13.374;2024-02-15T10:15:33;14.10;99.90
2130;DHT22;1071;52.544;13.374;2024-02-15T10:18:01;14.10;99.90
2130;DHT22;1071;52.544;13.374;2024-02-15T10:20:29;14.10;99.90
2130;DHT22;1071;52.544;13.374;2024-02-15T10:23:09;14.20;99.90
2130;DHT22;1071;52.544;13.374;2024-02-15T10:25:39;14.30;99.90
2130;DHT22;1071;52.544;13.374;2024-02-15T10:28:06;14.30;99.90
2130;DHT22;1071;52.544;13.374;2024-02-15T10:30:34;14.40;99.90
2130;DHT22;1071;52.544;13.374;2024-02-15T10:33:01;14.40;99.90
2130;DHT22;1071;52.544;13.374;2024-02-15T10:35:29;14.40;99.90
2130;DHT22;1071;52.544;13.374;2024-02-15T10:38:05;14.40;99.90
2130;DHT22;1071;52.544;13.374;2024-02-15T10:40:33;14.50;99.90
2130;DHT22;1071;52.544;13.374;2024-02-15T10:43:04;14.50;99.90
2130;DHT22;1071;52.544;13.374;2024-02-15T10:45:32;14.50;99.90
2130;DHT22;1071;52.544;13.374;2024-02-15T10:48:00;14.60;99.90
2130;DHT22;1071;52.544;13.374;2024-02-15T10:50:27;14.50;99.90
2130;DHT22;1071;52.544;13.374;2024-02-15T10:52:55;14.60;99.90
2130;DHT22;1071;52.544;13.374;2024-02-15T10:55:38;14.60;99.90
2130;DHT22;1071;52.544;13.374;2024-02-15T10:58:08;14.70;99.90
2130;DHT22;1071;52.544;13.374;2024-02-15T11:00:35;14.80;99.90
2130;DHT22;1071;52.544;13.374;2024-02-15T11:03:07;14.80;99.90
2130;DHT22;1071;52.544;13.374;2024-02-15T11:05:35;14.90;99.90
2130;DHT22;1071;52.544;13.374;2024-02-15T11:08:03;15.00;99.90
2130;DHT22;1071;52.544;13.374;2024-02-15T11:10:32;15.00;99.90
2130;DHT22;1071;52.544;13.374;2024-02-15T11:13:00;15.10;99.90
2130;DHT22;1071;52.544;13.374;2024-02-15T11:15:50;15.10;99.90
2130;DHT22;1071;52.544;13.374;2024-02-15T11:18:44;15.20;99.90
2130;DHT22;1071;52.544;13.374;2024-02-15T11:21:15;15.20;99.90
2130;DHT22;1071;52.544;13.374;2024-02-15T11:23:42;15.20;99.90
2130;DHT22;1071;52.544;13.374;2024-02-15T11:28:58;15.20;99.90
2130;DHT22;1071;52.544;13.374;2024-02-15T11:31:54;15.20;99.90
2130;DHT22;1071;52.544;13.374;2024-02-15T11:34:46;15.10;99.90
2130;DHT22;1071;52.544;13.374;2024-02-15T11:37:50;15.20;99.90
2130;DHT22;1071;52.544;13.374;2024-02-15T11:40:19;15.20;99.90
2130;DHT22;1071;52.544;13.374;2024-02-15T11:42:48;15.20;99.90
2130;DHT22;1071;52.544;13.374;2024-02-15T11:45:16;15.20;99.90
2130;DHT22;1071;52.544;13.374;2024-02-15T11:47:49;15.20;99.90
2130;DHT22;1071;52.544;13.374;2024-02-15T11:50:17;15.10;99.90
2130;DHT22;1071;52.544;13.374;2024-02-15T11:52:46;15.20;99.90
2130;DHT22;1071;52.544;13.374;2024-02-15T11:55:17;15.20;99.90
2130;DHT22;1071;52.544;13.374;2024-02-15T11:57:54;15.20;99.90
2130;DHT22;1071;52.544;13.374;2024-02-15T12:00:28;15.20;99.90
2130;DHT22;1071;52.544;13.374;2024-02-15T12:03:15;15.20;99.90
2130;DHT22;1071;52.544;13.374;2024-02-15T12:06:02;15.30;99.90
2130;DHT22;1071;52.544;13.374;2024-02-15T12:08:46;15.30;99.90
2130;DHT22;1071;52.544;13.374;2024-02-15T12:11:31;15.30;99.90
2130;DHT22;1071;52.544;13.374;2024-02-15T12:14:15;15.30;99.90
2130;DHT22;1071;52.544;13.374;2024-02-15T12:17:03;15.30;99.90
2130;DHT22;1071;52.544;13.374;2024-02-15T12:19:50;15.20;99.90
2130;DHT22;1071;52.544;13.374;2024-02-15T12:22:22;15.30;99.90
2130;DHT22;1071;52.544;13.374;2024-02-15T12:24:58;15.30;99.90
2130;DHT22;1071;52.544;13.374;2024-02-15T12:27:27;15.30;99.90
2130;DHT22;1071;52.544;13.374;2024-02-15T12:29:55;15.30;99.90
2130;DHT22;1071;52.544;13.374;2024-02-15T12:32:24;15.30;99.90
2130;DHT22;1071;52.544;13.374;2024-02-15T12:34:53;15.30;99.90
2130;DHT22;1071;52.544;13.374;2024-02-15T12:37:35;15.30;99.90
2130;DHT22;1071;52.544;13.374;2024-02-15T12:40:10;15.30;99.90
2130;DHT22;1071;52.544;13.374;2024-02-15T12:42:41;15.30;99.90
2130;DHT22;1071;52.544;13.374;2024-02-15T12:45:15;15.30;99.90
2130;DHT22;1071;52.544;13.374;2024-02-15T12:47:43;15.40;99.90
2130;DHT22;1071;52.544;13.374;2024-02-15T12:50:16;15.40;99.90
2130;DHT22;1071;52.544;13.374;2024-02-15T12:52:45;15.40;99.90
2130;DHT22;1071;52.544;13.374;2024-02-15T12:55:14;15.50;99.90
2130;DHT22;1071;52.544;13.374;2024-02-15T12:57:42;15.50;99.90
2130;DHT22;1071;52.544;13.374;2024-02-15T13:00:18;15.50;99.90
2130;DHT22;1071;52.544;13.374;2024-02-15T13:02:47;15.60;99.90
2130;DHT22;1071;52.544;13.374;2024-02-15T13:05:17;15.60;99.90
2130;DHT22;1071;52.544;13.374;2024-02-15T13:07:45;15.60;99.90
2130;DHT22;1071;52.544;13.374;2024-02-15T13:10:23;15.60;99.90
2130;DHT22;1071;52.544;13.374;2024-02-15T13:12:52;15.60;99.90
2130;DHT22;1071;52.544;13.374;2024-02-15T13:15:21;15.60;99.90
2130;DHT22;1071;52.544;13.374;2024-02-15T13:17:53;15.60;99.90
2130;DHT22;1071;52.544;13.374;2024-02-15T13:20:23;15.60;99.90
2130;DHT22;1071;52.544;13.374;2024-02-15T13:22:57;15.60;99.90
2130;DHT22;1071;52.544;13.374;2024-02-15T13:25:28;15.60;99.90
2130;DHT22;1071;52.544;13.374;2024-02-15T13:28:05;15.60;99.90
2130;DHT22;1071;52.544;13.374;2024-02-15T13:30:34;15.60;99.90
2130;DHT22;1071;52.544;13.374;2024-02-15T13:33:01;15.60;99.90
2130;DHT22;1071;52.544;13.374;2024-02-15T13:35:30;15.60;99.90
2130;DHT22;1071;52.544;13.374;2024-02-15T13:37:57;15.70;99.90
2130;DHT22;1071;52.544;13.374;2024-02-15T13:40:25;15.70;99.90
2130;DHT22;1071;52.544;13.374;2024-02-15T13:42:55;15.70;99.90
2130;DHT22;1071;52.544;13.374;2024-02-15T13:45:28;15.80;99.90
2130;DHT22;1071;52.544;13.374;2024-02-15T13:47:59;15.80;99.90
2130;DHT22;1071;52.544;13.374;2024-02-15T13:50:28;15.80;99.90
2130;DHT22;1071;52.544;13.374;2024-02-15T13:52:56;15.80;99.90
2130;DHT22;1071;52.544;13.374;2024-02-15T13:55:24;15.90;99.90
2130;DHT22;1071;52.544;13.374;2024-02-15T13:57:53;15.90;99.90
2130;DHT22;1071;52.544;13.374;2024-02-15T14:00:25;15.90;99.90
2130;DHT22;1071;52.544;13.374;2024-02-15T14:03:00;15.90;99.90
2130;DHT22;1071;52.544;13.374;2024-02-15T14:05:28;15.90;99.90
2130;DHT22;1071;52.544;13.374;2024-02-15T14:07:58;15.90;99.90
2130;DHT22;1071;52.544;13.374;2024-02-15T14:10:30;15.90;99.90
2130;DHT22;1071;52.544;13.374;2024-02-15T14:12:59;15.90;99.90
2130;DHT22;1071;52.544;13.374;2024-02-15T14:15:27;15.90;99.90
2130;DHT22;1071;52.544;13.374;2024-02-15T14:17:54;15.90;99.90
2130;DHT22;1071;52.544;13.374;2024-02-15T14:20:22;15.90;99.90
2130;DHT22;1071;52.544;13.374;2024-02-15T14:22:51;15.90;99.90
2130;DHT22;1071;52.544;13.374;2024-02-15T14:25:22;15.90;99.90
2130;DHT22;1071;52.544;13.374;2024-02-15T14:27:51;15.90;99.90
2130;DHT22;1071;52.544;13.374;2024-02-15T14:30:19;15.90;99.90
2130;DHT22;1071;52.544;13.374;2024-02-15T14:33:04;15.90;99.90
2130;DHT22;1071;52.544;13.374;2024-02-15T14:35:37;15.90;99.90
2130;DHT22;1071;52.544;13.374;2024-02-15T14:38:09;15.90;99.90
2130;DHT22;1071;52.544;13.374;2024-02-15T14:40:40;15.90;99.90
2130;DHT22;1071;52.544;13.374;2024-02-15T14:43:08;15.90;99.90
2130;DHT22;1071;52.544;13.374;2024-02-15T14:45:38;15.90;99.90
2130;DHT22;1071;52.544;13.374;2024-02-15T14:48:07;15.80;99.90
2130;DHT22;1071;52.544;13.374;2024-02-15T14:50:35;15.80;99.90
2130;DHT22;1071;52.544;13.374;2024-02-15T14:53:02;15.80;99.90
2130;DHT22;1071;52.544;13.374;2024-02-15T14:55:29;15.80;99.90
2130;DHT22;1071;52.544;13.374;2024-02-15T14:57:58;15.80;99.90
2130;DHT22;1071;52.544;13.374;2024-02-15T15:00:25;15.80;99.90
2130;DHT22;1071;52.544;13.374;2024-02-15T15:02:53;15.80;99.90
2130;DHT22;1071;52.544;13.374;2024-02-15T15:05:22;15.80;99.90
2130;DHT22;1071;52.544;13.374;2024-02-15T15:08:07;15.80;99.90
2130;DHT22;1071;52.544;13.374;2024-02-15T15:10:51;15.80;99.90
2130;DHT22;1071;52.544;13.374;2024-02-15T15:13:48;15.80;99.90
2130;DHT22;1071;52.544;13.374;2024-02-15T15:16:17;15.80;99.90
2130;DHT22;1071;52.544;13.374;2024-02-15T15:18:46;15.80;99.90
2130;DHT22;1071;52.544;13.374;2024-02-15T15:21:13;15.80;99.90
2130;DHT22;1071;52.544;13.374;2024-02-15T15:23:42;15.80;99.90
2130;DHT22;1071;52.544;13.374;2024-02-15T15:26:10;15.80;99.90
2130;DHT22;1071;52.544;13.374;2024-02-15T15:28:37;15.80;99.90
2130;DHT22;1071;52.544;13.374;2024-02-15T15:31:06;15.80;99.90
2130;DHT22;1071;52.544;13.374;2024-02-15T15:33:33;15.70;99.90
2130;DHT22;1071;52.544;13.374;2024-02-15T15:36:02;15.70;99.90
2130;DHT22;1071;52.544;13.374;2024-02-15T15:38:31;15.70;99.90
2130;DHT22;1071;52.544;13.374;2024-02-15T15:40:58;15.70;99.90
2130;DHT22;1071;52.544;13.374;2024-02-15T15:43:26;15.70;99.90
2130;DHT22;1071;52.544;13.374;2024-02-15T15:45:54;15.70;99.90
2130;DHT22;1071;52.544;13.374;2024-02-15T15:48:24;15.70;99.90
2130;DHT22;1071;52.544;13.374;2024-02-15T15:50:51;15.70;99.90
2130;DHT22;1071;52.544;13.374;2024-02-15T15:53:19;15.70;99.90
2130;DHT22;1071;52.544;13.374;2024-02-15T15:55:47;15.60;99.90
2130;DHT22;1071;52.544;13.374;2024-02-15T15:58:14;15.60;99.90
2130;DHT22;1071;52.544;13.374;2024-02-15T16:00:41;15.60;99.90
2130;DHT22;1071;52.544;13.374;2024-02-15T16:03:09;15.60;99.90